sensor_id;sensor_type;location;lat;lon;timestamp;temperature;humidity
47779;DHT22;33538;48.432;11.350;2022-11-15T00:00:27;5.20;99.90
47779;DHT22;33538;48.432;11.350;2022-11-15T00:02:55;5.20;99.90
47779;DHT22;33538;48.432;11.350;2022-11-15T00:05:22;5.20;99.90
47779;DHT22;33538;48.432;11.350;2022-11-15T00:07:48;5.20;99.90
47779;DHT22;33538;48.432;11.350;2022-11-15T00:10:21;5.20;99.90
47779;DHT22;33538;48.432;11.350;2022-11-15T00:12:48;5.20;99.90
47779;DHT22;33538;48.432;11.350;2022-11-15T00:15:15;5.20;99.90
47779;DHT22;33538;48.432;11.350;2022-11-15T00:17:43;5.30;99.90
47779;DHT22;33538;48.432;11.350;2022-11-15T00:20:10;5.20;99.90
47779;DHT22;33538;48.432;11.350;2022-11-15T00:22:37;5.20;99.90
47779;DHT22;33538;48.432;11.350;2022-11-15T00:25:05;5.30;99.90
47779;DHT22;33538;48.432;11.350;2022-11-15T00:27:32;5.30;99.90
47779;DHT22;33538;48.432;11.350;2022-11-15T00:29:59;5.30;99.90
47779;DHT22;33538;48.432;11.350;2022-11-15T00:32:25;5.30;99.90
47779;DHT22;33538;48.432;11.350;2022-11-15T00:34:53;5.30;99.90
47779;DHT22;33538;48.432;11.350;2022-11-15T00:37:20;5.20;99.90
47779;DHT22;33538;48.432;11.350;2022-11-15T00:39:47;5.20;99.90
47779;DHT22;33538;48.432;11.350;2022-11-15T00:42:14;5.20;99.90
47779;DHT22;33538;48.432;11.350;2022-11-15T00:44:40;5.10;99.90
47779;DHT22;33538;48.432;11.350;2022-11-15T00:47:07;5.20;99.90
47779;DHT22;33538;48.432;11.350;2022-11-15T00:49:34;5.10;99.90
47779;DHT22;33538;48.432;11.350;2022-11-15T00:52:02;5.10;99.90
47779;DHT22;33538;48.432;11.350;2022-11-15T00:54:29;5.10;99.90
47779;DHT22;33538;48.432;11.350;2022-11-15T00:56:56;5.10;99.90
47779;DHT22;33538;48.432;11.350;2022-11-15T00:59:22;5.10;99.90
47779;DHT22;33538;48.432;11.350;2022-11-15T01:01:49;5.00;99.90
47779;DHT22;33538;48.432;11.350;2022-11-15T01:04:16;5.00;99.90
47779;DHT22;33538;48.432;11.350;2022-11-15T01:06:43;5.00;99.90
47779;DHT22;33538;48.432;11.350;2022-11-15T01:09:11;5.00;99.90
47779;DHT22;33538;48.432;11.350;2022-11-15T01:11:38;4.90;99.90
47779;DHT22;33538;48.432;11.350;2022-11-15T01:14:04;4.90;99.90
47779;DHT22;33538;48.432;11.350;2022-11-15T01:16:31;5.00;99.90
47779;DHT22;33538;48.432;11.350;2022-11-15T01:18:58;5.00;99.90
47779;DHT22;33538;48.432;11.350;2022-11-15T01:21:25;4.90;99.90
47779;DHT22;33538;48.432;11.350;2022-11-15T01:23:53;5.00;99.90
47779;DHT22;33538;48.432;11.350;2022-11-15T01:26:22;4.90;99.90
47779;DHT22;33538;48.432;11.350;2022-11-15T01:28:49;4.90;99.90
47779;DHT22;33538;48.432;11.350;2022-11-15T01:31:18;4.90;99.90
47779;DHT22;33538;48.432;11.350;2022-11-15T01:33:45;4.90;99.90
47779;DHT22;33538;48.432;11.350;2022-11-15T01:36:15;4.90;99.90
47779;DHT22;33538;48.432;11.350;2022-11-15T01:38:42;4.90;99.90
47779;DHT22;33538;48.432;11.350;2022-11-15T01:41:15;4.90;99.90
47779;DHT22;33538;48.432;11.350;2022-11-15T01:43:44;4.80;99.90
47779;DHT22;33538;48.432;11.350;2022-11-15T01:46:23;4.80;99.90
47779;DHT22;33538;48.432;11.350;2022-11-15T01:48:52;4.80;99.90
47779;DHT22;33538;48.432;11.350;2022-11-15T01:51:22;4.80;99.90
47779;DHT22;33538;48.432;11.350;2022-11-15T01:53:54;4.90;99.90
47779;DHT22;33538;48.432;11.350;2022-11-15T01:56:23;4.90;99.90
47779;DHT22;33538;48.432;11.350;2022-11-15T01:58:53;4.90;99.90
47779;DHT22;33538;48.432;11.350;2022-11-15T02:01:22;4.90;99.90
47779;DHT22;33538;48.432;11.350;2022-11-15T02:03:54;4.90;99.90
47779;DHT22;33538;48.432;11.350;2022-11-15T02:06:22;4.90;99.90
47779;DHT22;33538;48.432;11.350;2022-11-15T02:08:50;4.90;99.90
47779;DHT22;33538;48.432;11.350;2022-11-15T02:11:16;4.80;99.90
47779;DHT22;33538;48.432;11.350;2022-11-15T02:13:43;4.80;99.90
47779;DHT22;33538;48.432;11.350;2022-11-15T02:16:19;4.80;99.90
47779;DHT22;33538;48.432;11.350;2022-11-15T02:18:54;4.80;99.90
47779;DHT22;33538;48.432;11.350;2022-11-15T02:21:29;4.80;99.90
47779;DHT22;33538;48.432;11.350;2022-11-15T02:24:07;4.80;99.90
47779;DHT22;33538;48.432;11.350;2022-11-15T02:27:01;4.80;99.90
47779;DHT22;33538;48.432;11.350;2022-11-15T02:29:48;4.70;99.90
47779;DHT22;33538;48.432;11.350;2022-11-15T02:32:29;4.70;99.90
47779;DHT22;33538;48.432;11.350;2022-11-15T02:35:03;4.70;99.90
47779;DHT22;33538;48.432;11.350;2022-11-15T02:37:38;4.60;99.90
47779;DHT22;33538;48.432;11.350;2022-11-15T02:40:11;4.60;99.90
47779;DHT22;33538;48.432;11.350;2022-11-15T02:42:43;4.60;99.90
47779;DHT22;33538;48.432;11.350;2022-11-15T02:45:17;4.60;99.90
47779;DHT22;33538;48.432;11.350;2022-11-15T02:47:49;4.60;99.90
47779;DHT22;33538;48.432;11.350;2022-11-15T02:50:21;4.60;99.90
47779;DHT22;33538;48.432;11.350;2022-11-15T02:52:48;4.60;99.90
47779;DHT22;33538;48.432;11.350;2022-11-15T02:55:30;4.50;99.90
47779;DHT22;33538;48.432;11.350;2022-11-15T02:58:11;4.50;99.90
47779;DHT22;33538;48.432;11.350;2022-11-15T03:00:48;4.50;99.90
47779;DHT22;33538;48.432;11.350;2022-11-15T03:03:33;4.50;99.90
47779;DHT22;33538;48.432;11.350;2022-11-15T03:06:09;4.50;99.90
47779;DHT22;33538;48.432;11.350;2022-11-15T03:08:48;4.50;99.90
47779;DHT22;33538;48.432;11.350;2022-11-15T03:11:20;4.40;99.90
47779;DHT22;33538;48.432;11.350;2022-11-15T03:13:52;4.40;99.90
47779;DHT22;33538;48.432;11.350;2022-11-15T03:16:24;4.40;99.90
47779;DHT22;33538;48.432;11.350;2022-11-15T03:18:57;4.30;99.90
47779;DHT22;33538;48.432;11.350;2022-11-15T03:21:25;4.30;99.90
47779;DHT22;33538;48.432;11.350;2022-11-15T03:23:54;4.30;99.90
47779;DHT22;33538;48.432;11.350;2022-11-15T03:26:23;4.30;99.90
47779;DHT22;33538;48.432;11.350;2022-11-15T03:28:53;4.20;99.90
47779;DHT22;33538;48.432;11.350;2022-11-15T03:31:23;4.30;99.90
47779;DHT22;33538;48.432;11.350;2022-11-15T03:33:53;4.30;99.90
47779;DHT22;33538;48.432;11.350;2022-11-15T03:36:22;4.30;99.90
47779;DHT22;33538;48.432;11.350;2022-11-15T03:38:51;4.30;99.90
47779;DHT22;33538;48.432;11.350;2022-11-15T03:41:22;4.30;99.90
47779;DHT22;33538;48.432;11.350;2022-11-15T03:43:53;4.30;99.90
47779;DHT22;33538;48.432;11.350;2022-11-15T03:46:26;4.30;99.90
47779;DHT22;33538;48.432;11.350;2022-11-15T03:48:59;4.20;99.90
47779;DHT22;33538;48.432;11.350;2022-11-15T03:51:27;4.10;99.90
47779;DHT22;33538;48.432;11.350;2022-11-15T03:53:54;4.20;99.90
47779;DHT22;33538;48.432;11.350;2022-11-15T03:56:21;4.20;99.90
47779;DHT22;33538;48.432;11.350;2022-11-15T03:58:47;4.20;99.90
47779;DHT22;33538;48.432;11.350;2022-11-15T04:01:14;4.20;99.90
47779;DHT22;33538;48.432;11.350;2022-11-15T04:03:41;4.30;99.90
47779;DHT22;33538;48.432;11.350;2022-11-15T04:06:09;4.30;99.90
47779;DHT22;33538;48.432;11.350;2022-11-15T04:08:36;4.20;99.90
47779;DHT22;33538;48.432;11.350;2022-11-15T04:11:02;4.20;99.90
47779;DHT22;33538;48.432;11.350;2022-11-15T04:13:29;4.20;99.90
47779;DHT22;33538;48.432;11.350;2022-11-15T04:15:56;4.20;99.90
47779;DHT22;33538;48.432;11.350;2022-11-15T04:18:23;4.20;99.90
47779;DHT22;33538;48.432;11.350;2022-11-15T04:20:50;4.20;99.90
47779;DHT22;33538;48.432;11.350;2022-11-15T04:23:19;4.20;99.90
47779;DHT22;33538;48.432;11.350;2022-11-15T04:25:48;4.10;99.90
47779;DHT22;33538;48.432;11.350;2022-11-15T04:28:16;4.10;99.90
47779;DHT22;33538;48.432;11.350;2022-11-15T04:30:43;4.00;99.90
47779;DHT22;33538;48.432;11.350;2022-11-15T04:33:09;4.00;99.90
47779;DHT22;33538;48.432;11.350;2022-11-15T04:35:36;4.00;99.90
47779;DHT22;33538;48.432;11.350;2022-11-15T04:38:05;4.00;99.90
47779;DHT22;33538;48.432;11.350;2022-11-15T04:40:33;4.00;99.90
47779;DHT22;33538;48.432;11.350;2022-11-15T04:43:00;4.00;99.90
47779;DHT22;33538;48.432;11.350;2022-11-15T04:45:30;4.00;99.90
47779;DHT22;33538;48.432;11.350;2022-11-15T04:47:57;4.00;99.90
47779;DHT22;33538;48.432;11.350;2022-11-15T04:50:23;4.00;99.90
47779;DHT22;33538;48.432;11.350;2022-11-15T04:52:52;4.00;99.90
47779;DHT22;33538;48.432;11.350;2022-11-15T04:55:19;4.00;99.90
47779;DHT22;33538;48.432;11.350;2022-11-15T04:57:47;4.00;99.90
47779;DHT22;33538;48.432;11.350;2022-11-15T05:00:16;3.90;99.90
47779;DHT22;33538;48.432;11.350;2022-11-15T05:02:43;3.90;99.90
47779;DHT22;33538;48.432;11.350;2022-11-15T05:05:09;3.90;99.90
47779;DHT22;33538;48.432;11.350;2022-11-15T05:07:36;3.90;99.90
47779;DHT22;33538;48.432;11.350;2022-11-15T05:10:03;3.90;99.90
47779;DHT22;33538;48.432;11.350;2022-11-15T05:12:30;3.90;99.90
47779;DHT22;33538;48.432;11.350;2022-11-15T05:14:58;3.90;99.90
47779;DHT22;33538;48.432;11.350;2022-11-15T05:17:25;3.80;99.90
47779;DHT22;33538;48.432;11.350;2022-11-15T05:19:52;3.80;99.90
47779;DHT22;33538;48.432;11.350;2022-11-15T05:22:19;3.80;99.90
47779;DHT22;33538;48.432;11.350;2022-11-15T05:24:45;3.80;99.90
47779;DHT22;33538;48.432;11.350;2022-11-15T05:27:12;3.80;99.90
47779;DHT22;33538;48.432;11.350;2022-11-15T05:29:39;3.80;99.90
47779;DHT22;33538;48.432;11.350;2022-11-15T05:32:08;3.70;99.90
47779;DHT22;33538;48.432;11.350;2022-11-15T05:34:35;3.80;99.90
47779;DHT22;33538;48.432;11.350;2022-11-15T05:37:03;3.80;99.90
47779;DHT22;33538;48.432;11.350;2022-11-15T05:39:30;3.80;99.90
47779;DHT22;33538;48.432;11.350;2022-11-15T05:42:00;3.80;99.90
47779;DHT22;33538;48.432;11.350;2022-11-15T05:44:27;3.80;99.90
47779;DHT22;33538;48.432;11.350;2022-11-15T05:46:55;3.80;99.90
47779;DHT22;33538;48.432;11.350;2022-11-15T05:49:26;3.80;99.90
47779;DHT22;33538;48.432;11.350;2022-11-15T05:51:55;3.80;99.90
47779;DHT22;33538;48.432;11.350;2022-11-15T05:54:23;3.70;99.90
47779;DHT22;33538;48.432;11.350;2022-11-15T05:56:51;3.80;99.90
47779;DHT22;33538;48.432;11.350;2022-11-15T05:59:18;3.80;99.90
47779;DHT22;33538;48.432;11.350;2022-11-15T06:01:45;3.80;99.90
47779;DHT22;33538;48.432;11.350;2022-11-15T06:04:12;3.80;99.90
47779;DHT22;33538;48.432;11.350;2022-11-15T06:06:40;3.80;99.90
47779;DHT22;33538;48.432;11.350;2022-11-15T06:09:07;3.70;99.90
47779;DHT22;33538;48.432;11.350;2022-11-15T06:11:34;3.80;99.90
47779;DHT22;33538;48.432;11.350;2022-11-15T06:14:01;3.80;99.90
47779;DHT22;33538;48.432;11.350;2022-11-15T06:16:28;3.70;99.90
47779;DHT22;33538;48.432;11.350;2022-11-15T06:18:54;3.70;99.90
47779;DHT22;33538;48.432;11.350;2022-11-15T06:21:21;3.60;99.90
47779;DHT22;33538;48.432;11.350;2022-11-15T06:23:49;3.60;99.90
47779;DHT22;33538;48.432;11.350;2022-11-15T06:26:16;3.70;99.90
47779;DHT22;33538;48.432;11.350;2022-11-15T06:28:43;3.70;99.90
47779;DHT22;33538;48.432;11.350;2022-11-15T06:31:10;3.60;99.90
47779;DHT22;33538;48.432;11.350;2022-11-15T06:33:37;3.60;99.90
47779;DHT22;33538;48.432;11.350;2022-11-15T06:36:06;3.60;99.90
47779;DHT22;33538;48.432;11.350;2022-11-15T06:38:40;3.60;99.90
47779;DHT22;33538;48.432;11.350;2022-11-15T06:41:09;3.60;99.90
47779;DHT22;33538;48.432;11.350;2022-11-15T06:43:36;3.60;99.90
47779;DHT22;33538;48.432;11.350;2022-11-15T06:46:05;3.60;99.90
47779;DHT22;33538;48.432;11.350;2022-11-15T06:48:32;3.60;99.90
47779;DHT22;33538;48.432;11.350;2022-11-15T06:51:00;3.50;99.90
47779;DHT22;33538;48.432;11.350;2022-11-15T06:53:29;3.60;99.90
47779;DHT22;33538;48.432;11.350;2022-11-15T06:55:58;3.60;99.90
47779;DHT22;33538;48.432;11.350;2022-11-15T06:58:27;3.60;99.90
47779;DHT22;33538;48.432;11.350;2022-11-15T07:00:57;3.60;99.90
47779;DHT22;33538;48.432;11.350;2022-11-15T07:03:24;3.50;99.90
47779;DHT22;33538;48.432;11.350;2022-11-15T07:05:52;3.50;99.90
47779;DHT22;33538;48.432;11.350;2022-11-15T07:08:19;3.60;99.90
47779;DHT22;33538;48.432;11.350;2022-11-15T07:10:46;2.90;99.90
47779;DHT22;33538;48.432;11.350;2022-11-15T07:13:12;2.70;99.90
47779;DHT22;33538;48.432;11.350;2022-11-15T07:15:41;2.40;99.90
47779;DHT22;33538;48.432;11.350;2022-11-15T07:18:08;2.40;99.90
47779;DHT22;33538;48.432;11.350;2022-11-15T07:20:34;2.50;99.90
47779;DHT22;33538;48.432;11.350;2022-11-15T07:23:02;2.60;99.90
47779;DHT22;33538;48.432;11.350;2022-11-15T07:25:29;2.60;99.90
47779;DHT22;33538;48.432;11.350;2022-11-15T07:27:56;2.70;99.90
47779;DHT22;33538;48.432;11.350;2022-11-15T07:30:24;2.70;99.90
47779;DHT22;33538;48.432;11.350;2022-11-15T07:32:54;2.70;99.90
47779;DHT22;33538;48.432;11.350;2022-11-15T07:35:21;2.80;99.90
47779;DHT22;33538;48.432;11.350;2022-11-15T07:37:54;2.90;99.90
47779;DHT22;33538;48.432;11.350;2022-11-15T07:40:21;3.00;99.90
47779;DHT22;33538;48.432;11.350;2022-11-15T07:42:48;2.90;99.90
47779;DHT22;33538;48.432;11.350;2022-11-15T07:45:15;3.10;99.90
47779;DHT22;33538;48.432;11.350;2022-11-15T07:47:45;3.30;99.90
47779;DHT22;33538;48.432;11.350;2022-11-15T07:50:13;3.00;99.90
47779;DHT22;33538;48.432;11.350;2022-11-15T07:52:40;2.90;99.90
47779;DHT22;33538;48.432;11.350;2022-11-15T07:55:07;3.00;99.90
47779;DHT22;33538;48.432;11.350;2022-11-15T07:57:34;3.10;99.90
47779;DHT22;33538;48.432;11.350;2022-11-15T08:00:05;3.40;99.90
47779;DHT22;33538;48.432;11.350;2022-11-15T08:02:32;3.70;99.90
47779;DHT22;33538;48.432;11.350;2022-11-15T08:04:59;3.90;99.90
47779;DHT22;33538;48.432;11.350;2022-11-15T08:07:29;4.10;99.90
47779;DHT22;33538;48.432;11.350;2022-11-15T08:09:57;4.30;99.90
47779;DHT22;33538;48.432;11.350;2022-11-15T08:12:24;4.40;99.90
47779;DHT22;33538;48.432;11.350;2022-11-15T08:14:50;4.50;99.90
47779;DHT22;33538;48.432;11.350;2022-11-15T08:17:17;4.50;99.90
47779;DHT22;33538;48.432;11.350;2022-11-15T08:19:44;4.60;99.90
47779;DHT22;33538;48.432;11.350;2022-11-15T08:22:11;4.70;99.90
47779;DHT22;33538;48.432;11.350;2022-11-15T08:24:39;4.80;99.90
47779;DHT22;33538;48.432;11.350;2022-11-15T08:27:06;5.00;99.90
47779;DHT22;33538;48.432;11.350;2022-11-15T08:29:33;5.10;99.90
47779;DHT22;33538;48.432;11.350;2022-11-15T08:31:59;5.10;99.90
47779;DHT22;33538;48.432;11.350;2022-11-15T08:34:26;5.00;99.90
47779;DHT22;33538;48.432;11.350;2022-11-15T08:36:53;5.20;99.90
47779;DHT22;33538;48.432;11.350;2022-11-15T08:39:20;5.40;99.90
47779;DHT22;33538;48.432;11.350;2022-11-15T08:41:48;5.50;99.90
47779;DHT22;33538;48.432;11.350;2022-11-15T08:44:15;5.60;99.90
47779;DHT22;33538;48.432;11.350;2022-11-15T08:46:41;5.70;99.90
47779;DHT22;33538;48.432;11.350;2022-11-15T08:49:08;5.80;99.90
47779;DHT22;33538;48.432;11.350;2022-11-15T08:51:35;6.00;99.60
47779;DHT22;33538;48.432;11.350;2022-11-15T08:54:02;6.00;99.90
47779;DHT22;33538;48.432;11.350;2022-11-15T08:56:29;6.00;99.90
47779;DHT22;33538;48.432;11.350;2022-11-15T08:58:57;6.00;99.90
47779;DHT22;33538;48.432;11.350;2022-11-15T09:01:24;6.10;99.90
47779;DHT22;33538;48.432;11.350;2022-11-15T09:03:50;6.20;99.90
47779;DHT22;33538;48.432;11.350;2022-11-15T09:06:17;6.20;99.30
47779;DHT22;33538;48.432;11.350;2022-11-15T09:08:44;6.30;99.60
47779;DHT22;33538;48.432;11.350;2022-11-15T09:11:14;6.30;99.10
47779;DHT22;33538;48.432;11.350;2022-11-15T09:13:40;6.30;99.90
47779;DHT22;33538;48.432;11.350;2022-11-15T09:16:08;6.30;99.90
47779;DHT22;33538;48.432;11.350;2022-11-15T09:18:35;6.40;99.50
47779;DHT22;33538;48.432;11.350;2022-11-15T09:21:02;6.50;99.30
47779;DHT22;33538;48.432;11.350;2022-11-15T09:23:29;6.50;98.90
47779;DHT22;33538;48.432;11.350;2022-11-15T09:25:59;6.60;98.90
47779;DHT22;33538;48.432;11.350;2022-11-15T09:28:26;6.60;98.80
47779;DHT22;33538;48.432;11.350;2022-11-15T09:30:56;6.70;99.10
47779;DHT22;33538;48.432;11.350;2022-11-15T09:33:24;6.70;98.70
47779;DHT22;33538;48.432;11.350;2022-11-15T09:35:51;6.80;98.50
47779;DHT22;33538;48.432;11.350;2022-11-15T09:38:19;6.90;99.90
47779;DHT22;33538;48.432;11.350;2022-11-15T09:40:51;6.90;99.90
47779;DHT22;33538;48.432;11.350;2022-11-15T09:43:31;6.90;99.90
47779;DHT22;33538;48.432;11.350;2022-11-15T09:46:07;6.90;99.90
47779;DHT22;33538;48.432;11.350;2022-11-15T09:48:49;7.00;99.40
47779;DHT22;33538;48.432;11.350;2022-11-15T09:51:24;7.10;99.40
47779;DHT22;33538;48.432;11.350;2022-11-15T09:54:04;7.10;99.40
47779;DHT22;33538;48.432;11.350;2022-11-15T09:56:51;7.10;98.60
47779;DHT22;33538;48.432;11.350;2022-11-15T09:59:46;7.30;99.00
47779;DHT22;33538;48.432;11.350;2022-11-15T10:02:29;7.50;99.90
47779;DHT22;33538;48.432;11.350;2022-11-15T10:05:01;7.40;99.80
47779;DHT22;33538;48.432;11.350;2022-11-15T10:07:37;7.50;99.90
47779;DHT22;33538;48.432;11.350;2022-11-15T10:10:15;7.60;99.90
47779;DHT22;33538;48.432;11.350;2022-11-15T10:12:47;7.70;99.90
47779;DHT22;33538;48.432;11.350;2022-11-15T10:15:16;7.60;99.90
47779;DHT22;33538;48.432;11.350;2022-11-15T10:20:46;7.60;99.90
47779;DHT22;33538;48.432;11.350;2022-11-15T10:23:15;7.80;99.90
47779;DHT22;33538;48.432;11.350;2022-11-15T10:25:43;8.00;99.90
47779;DHT22;33538;48.432;11.350;2022-11-15T10:28:15;7.90;99.90
47779;DHT22;33538;48.432;11.350;2022-11-15T10:30:44;7.90;99.90
47779;DHT22;33538;48.432;11.350;2022-11-15T10:33:17;8.20;99.90
47779;DHT22;33538;48.432;11.350;2022-11-15T10:35:47;8.20;99.90
47779;DHT22;33538;48.432;11.350;2022-11-15T10:38:14;8.10;99.90
47779;DHT22;33538;48.432;11.350;2022-11-15T10:40:44;8.00;99.90
47779;DHT22;33538;48.432;11.350;2022-11-15T10:43:15;7.90;99.90
47779;DHT22;33538;48.432;11.350;2022-11-15T10:45:43;7.90;99.90
47779;DHT22;33538;48.432;11.350;2022-11-15T10:48:23;8.10;99.90
47779;DHT22;33538;48.432;11.350;2022-11-15T10:50:53;8.00;99.90
47779;DHT22;33538;48.432;11.350;2022-11-15T10:53:24;8.40;99.90
47779;DHT22;33538;48.432;11.350;2022-11-15T10:55:54;8.40;99.90
47779;DHT22;33538;48.432;11.350;2022-11-15T10:58:31;8.70;99.00
47779;DHT22;33538;48.432;11.350;2022-11-15T11:01:09;8.30;98.90
47779;DHT22;33538;48.432;11.350;2022-11-15T11:03:38;8.80;98.40
47779;DHT22;33538;48.432;11.350;2022-11-15T11:06:12;8.80;97.90
47779;DHT22;33538;48.432;11.350;2022-11-15T11:08:39;8.50;98.50
47779;DHT22;33538;48.432;11.350;2022-11-15T11:11:07;8.40;99.40
47779;DHT22;33538;48.432;11.350;2022-11-15T11:13:35;8.30;99.90
47779;DHT22;33538;48.432;11.350;2022-11-15T11:16:26;8.30;99.90
47779;DHT22;33538;48.432;11.350;2022-11-15T11:19:13;8.30;99.90
47779;DHT22;33538;48.432;11.350;2022-11-15T11:21:51;8.70;99.50
47779;DHT22;33538;48.432;11.350;2022-11-15T11:24:24;8.50;99.50
47779;DHT22;33538;48.432;11.350;2022-11-15T11:27:11;8.40;99.90
47779;DHT22;33538;48.432;11.350;2022-11-15T11:29:50;8.60;99.90
47779;DHT22;33538;48.432;11.350;2022-11-15T11:32:32;8.50;99.90
47779;DHT22;33538;48.432;11.350;2022-11-15T11:35:08;8.40;99.90
47779;DHT22;33538;48.432;11.350;2022-11-15T11:37:46;8.40;99.90
47779;DHT22;33538;48.432;11.350;2022-11-15T11:40:20;8.30;99.90
47779;DHT22;33538;48.432;11.350;2022-11-15T11:42:55;8.40;99.90
47779;DHT22;33538;48.432;11.350;2022-11-15T11:45:27;8.70;99.90
47779;DHT22;33538;48.432;11.350;2022-11-15T11:48:03;8.70;99.90
47779;DHT22;33538;48.432;11.350;2022-11-15T11:50:37;8.60;99.90
47779;DHT22;33538;48.432;11.350;2022-11-15T11:53:11;8.80;99.90
47779;DHT22;33538;48.432;11.350;2022-11-15T11:55:41;8.80;99.90
47779;DHT22;33538;48.432;11.350;2022-11-15T11:58:17;8.80;99.90
47779;DHT22;33538;48.432;11.350;2022-11-15T12:00:49;8.80;99.90
47779;DHT22;33538;48.432;11.350;2022-11-15T12:03:23;9.00;99.90
47779;DHT22;33538;48.432;11.350;2022-11-15T12:05:55;9.30;99.90
47779;DHT22;33538;48.432;11.350;2022-11-15T12:08:29;9.10;99.90
47779;DHT22;33538;48.432;11.350;2022-11-15T12:11:03;9.00;99.90
47779;DHT22;33538;48.432;11.350;2022-11-15T12:13:34;9.20;99.90
47779;DHT22;33538;48.432;11.350;2022-11-15T12:16:05;9.30;99.90
47779;DHT22;33538;48.432;11.350;2022-11-15T12:18:36;9.50;99.70
47779;DHT22;33538;48.432;11.350;2022-11-15T12:21:07;9.20;99.90
47779;DHT22;33538;48.432;11.350;2022-11-15T12:23:44;9.10;99.90
47779;DHT22;33538;48.432;11.350;2022-11-15T12:26:18;9.40;99.90
47779;DHT22;33538;48.432;11.350;2022-11-15T12:28:49;9.00;99.90
47779;DHT22;33538;48.432;11.350;2022-11-15T12:31:37;9.10;99.90
47779;DHT22;33538;48.432;11.350;2022-11-15T12:34:14;9.10;99.90
47779;DHT22;33538;48.432;11.350;2022-11-15T12:36:43;9.10;99.90
47779;DHT22;33538;48.432;11.350;2022-11-15T12:39:12;9.00;99.90
47779;DHT22;33538;48.432;11.350;2022-11-15T12:41:40;9.20;99.90
47779;DHT22;33538;48.432;11.350;2022-11-15T12:44:11;9.00;99.90
47779;DHT22;33538;48.432;11.350;2022-11-15T12:47:02;8.90;99.90
47779;DHT22;33538;48.432;11.350;2022-11-15T12:49:45;8.90;99.90
47779;DHT22;33538;48.432;11.350;2022-11-15T12:52:13;8.80;99.90
47779;DHT22;33538;48.432;11.350;2022-11-15T12:54:59;8.90;99.90
47779;DHT22;33538;48.432;11.350;2022-11-15T12:57:35;9.00;99.90
47779;DHT22;33538;48.432;11.350;2022-11-15T13:03:19;9.10;99.90
47779;DHT22;33538;48.432;11.350;2022-11-15T13:06:10;9.10;99.90
47779;DHT22;33538;48.432;11.350;2022-11-15T13:08:56;9.00;99.90
47779;DHT22;33538;48.432;11.350;2022-11-15T13:11:50;8.80;99.90
47779;DHT22;33538;48.432;11.350;2022-11-15T13:14:40;8.80;99.90
47779;DHT22;33538;48.432;11.350;2022-11-15T13:20:21;8.80;99.90
47779;DHT22;33538;48.432;11.350;2022-11-15T13:22:49;8.70;99.90
47779;DHT22;33538;48.432;11.350;2022-11-15T13:25:21;8.70;99.90
47779;DHT22;33538;48.432;11.350;2022-11-15T13:27:51;8.70;99.90
47779;DHT22;33538;48.432;11.350;2022-11-15T13:30:21;8.60;99.90
47779;DHT22;33538;48.432;11.350;2022-11-15T13:32:48;8.50;99.90
47779;DHT22;33538;48.432;11.350;2022-11-15T13:35:20;8.40;99.90
47779;DHT22;33538;48.432;11.350;2022-11-15T13:37:48;8.40;99.90
47779;DHT22;33538;48.432;11.350;2022-11-15T13:40:26;8.30;99.90
47779;DHT22;33538;48.432;11.350;2022-11-15T13:42:55;8.30;99.90
47779;DHT22;33538;48.432;11.350;2022-11-15T13:45:23;8.20;99.90
47779;DHT22;33538;48.432;11.350;2022-11-15T13:47:57;8.20;99.90
47779;DHT22;33538;48.432;11.350;2022-11-15T13:50:25;8.10;99.90
47779;DHT22;33538;48.432;11.350;2022-11-15T13:52:57;8.10;99.90
47779;DHT22;33538;48.432;11.350;2022-11-15T13:55:25;8.10;99.90
47779;DHT22;33538;48.432;11.350;2022-11-15T13:57:56;8.10;99.90
47779;DHT22;33538;48.432;11.350;2022-11-15T14:00:33;8.10;99.90
47779;DHT22;33538;48.432;11.350;2022-11-15T14:03:07;8.10;99.90
47779;DHT22;33538;48.432;11.350;2022-11-15T14:05:34;8.00;99.90
47779;DHT22;33538;48.432;11.350;2022-11-15T14:08:04;8.10;99.90
47779;DHT22;33538;48.432;11.350;2022-11-15T14:10:39;8.30;99.90
47779;DHT22;33538;48.432;11.350;2022-11-15T14:13:26;8.30;99.90
47779;DHT22;33538;48.432;11.350;2022-11-15T14:15:53;8.10;99.90
47779;DHT22;33538;48.432;11.350;2022-11-15T14:18:39;8.10;99.90
47779;DHT22;33538;48.432;11.350;2022-11-15T14:21:07;8.00;99.90
47779;DHT22;33538;48.432;11.350;2022-11-15T14:23:35;8.00;99.90
47779;DHT22;33538;48.432;11.350;2022-11-15T14:26:02;8.00;99.90
47779;DHT22;33538;48.432;11.350;2022-11-15T14:28:38;7.90;99.90
47779;DHT22;33538;48.432;11.350;2022-11-15T14:31:11;7.90;99.90
47779;DHT22;33538;48.432;11.350;2022-11-15T14:33:39;7.80;99.90
47779;DHT22;33538;48.432;11.350;2022-11-15T14:36:11;7.90;99.90
47779;DHT22;33538;48.432;11.350;2022-11-15T14:38:38;7.80;99.90
47779;DHT22;33538;48.432;11.350;2022-11-15T14:41:05;7.80;99.90
47779;DHT22;33538;48.432;11.350;2022-11-15T14:43:32;7.80;99.90
47779;DHT22;33538;48.432;11.350;2022-11-15T14:46:00;7.80;99.90
47779;DHT22;33538;48.432;11.350;2022-11-15T14:48:27;7.70;99.90
47779;DHT22;33538;48.432;11.350;2022-11-15T14:50:54;7.70;99.90
47779;DHT22;33538;48.432;11.350;2022-11-15T14:53:21;7.70;99.90
47779;DHT22;33538;48.432;11.350;2022-11-15T14:55:48;7.70;99.90
47779;DHT22;33538;48.432;11.350;2022-11-15T14:58:15;7.70;99.90
47779;DHT22;33538;48.432;11.350;2022-11-15T15:00:42;7.60;99.90
47779;DHT22;33538;48.432;11.350;2022-11-15T15:03:10;7.60;99.90
47779;DHT22;33538;48.432;11.350;2022-11-15T15:05:38;7.60;99.90
47779;DHT22;33538;48.432;11.350;2022-11-15T15:08:06;7.70;99.90
47779;DHT22;33538;48.432;11.350;2022-11-15T15:10:35;7.60;99.90
47779;DHT22;33538;48.432;11.350;2022-11-15T15:13:15;7.60;99.90
47779;DHT22;33538;48.432;11.350;2022-11-15T15:15:42;7.60;99.90
47779;DHT22;33538;48.432;11.350;2022-11-15T15:18:10;7.70;99.90
47779;DHT22;33538;48.432;11.350;2022-11-15T15:20:38;7.60;99.90
47779;DHT22;33538;48.432;11.350;2022-11-15T15:23:07;7.70;99.90
47779;DHT22;33538;48.432;11.350;2022-11-15T15:25:35;7.70;99.90
47779;DHT22;33538;48.432;11.350;2022-11-15T15:28:02;7.60;99.90
47779;DHT22;33538;48.432;11.350;2022-11-15T15:30:30;7.60;99.90
47779;DHT22;33538;48.432;11.350;2022-11-15T15:32:56;7.70;99.90
47779;DHT22;33538;48.432;11.350;2022-11-15T15:35:28;7.50;99.90
47779;DHT22;33538;48.432;11.350;2022-11-15T15:37:55;7.70;99.90
47779;DHT22;33538;48.432;11.350;2022-11-15T15:40:23;7.60;99.90
47779;DHT22;33538;48.432;11.350;2022-11-15T15:42:50;7.60;99.90
47779;DHT22;33538;48.432;11.350;2022-11-15T15:45:19;7.50;99.90
47779;DHT22;33538;48.432;11.350;2022-11-15T15:47:46;7.60;99.90
47779;DHT22;33538;48.432;11.350;2022-11-15T15:50:20;7.50;99.90
47779;DHT22;33538;48.432;11.350;2022-11-15T15:52:49;7.40;99.90
47779;DHT22;33538;48.432;11.350;2022-11-15T15:55:16;7.30;99.90
47779;DHT22;33538;48.432;11.350;2022-11-15T15:57:43;7.30;99.90